Time;durP1;ratioP1;P1;durP2;ratioP2;P2;SDS_P1;SDS_P2;PMS_P1;PMS_P2;Temp;Humidity;BMP_temperature;BMP_pressure;BME280_temperature;BME280_humidity;BME280_pressure;Samples;Min_cycle;Max_cycle;Signal;HPM_P1;HPM_P2
2021/03/11 00:02:25;;;;;;;38.60;18.55;;;;;;;;;;5052160;28;20032;-65
2021/03/11 00:04:50;;;;;;;22.52;9.70;;;;;;;;;;5052251;28;20017;-65
2021/03/11 00:07:15;;;;;;;36.88;17.60;;;;;;;;;;5047204;28;20062;-65
2021/03/11 00:09:40;;;;;;;32.95;13.95;;;;;;;;;;5051725;28;20078;-65
2021/03/11 00:12:07;;;;;;;41.95;16.23;;;;;;;;;;5051966;28;20025;-65
2021/03/11 00:14:32;;;;;;;38.55;18.80;;;;;;;;;;5033877;28;20059;-64
2021/03/11 00:16:57;;;;;;;31.52;12.68;;;;;;;;;;5052001;28;20045;-65
2021/03/11 00:19:22;;;;;;;39.08;18.42;;;;;;;;;;5049717;28;20056;-65
2021/03/11 00:21:48;;;;;;;39.25;15.38;;;;;;;;;;5052174;28;20029;-65
2021/03/11 00:24:13;;;;;;;20.10;10.35;;;;;;;;;;5051182;28;20386;-65
2021/03/11 00:26:38;;;;;;;22.70;9.45;;;;;;;;;;5051879;28;20013;-65
2021/03/11 00:29:03;;;;;;;30.25;13.77;;;;;;;;;;5051324;28;20190;-64
2021/03/11 00:31:28;;;;;;;18.50;9.15;;;;;;;;;;5051571;28;20039;-65
2021/03/11 00:33:54;;;;;;;35.90;19.38;;;;;;;;;;5051809;28;20440;-65
2021/03/11 00:36:19;;;;;;;26.83;11.13;;;;;;;;;;5050342;28;20025;-64
2021/03/11 00:38:44;;;;;;;35.67;16.35;;;;;;;;;;5050445;28;20108;-64
2021/03/11 00:41:10;;;;;;;22.63;9.50;;;;;;;;;;5050920;28;20298;-65
2021/03/11 00:43:36;;;;;;;23.38;10.23;;;;;;;;;;5051661;28;20296;-64
2021/03/11 00:46:01;;;;;;;21.58;10.82;;;;;;;;;;5051197;28;20053;-64
2021/03/11 00:48:26;;;;;;;31.10;14.97;;;;;;;;;;5051023;28;20434;-64
2021/03/11 00:50:51;;;;;;;35.03;13.95;;;;;;;;;;5051175;28;20259;-64
2021/03/11 00:53:17;;;;;;;29.55;14.57;;;;;;;;;;5051022;28;20025;-64
2021/03/11 00:55:42;;;;;;;20.13;10.10;;;;;;;;;;5047506;28;20029;-64
2021/03/11 00:58:07;;;;;;;33.30;13.35;;;;;;;;;;5049005;28;20053;-64
2021/03/11 01:00:32;;;;;;;19.73;9.35;;;;;;;;;;5040558;28;20068;-64
2021/03/11 01:02:57;;;;;;;23.63;9.88;;;;;;;;;;5051142;28;20020;-64
2021/03/11 01:05:24;;;;;;;22.27;10.07;;;;;;;;;;5051180;28;20023;-64
2021/03/11 01:07:50;;;;;;;20.45;9.23;;;;;;;;;;5050349;28;20025;-64
2021/03/11 01:10:15;;;;;;;36.80;15.48;;;;;;;;;;5050821;28;20021;-64
2021/03/11 01:12:40;;;;;;;26.58;8.65;;;;;;;;;;5049284;28;20103;-64
2021/03/11 01:15:06;;;;;;;25.75;11.25;;;;;;;;;;5050765;28;20017;-64
2021/03/11 01:17:31;;;;;;;20.83;9.07;;;;;;;;;;5050374;28;20041;-64
2021/03/11 01:19:57;;;;;;;26.98;11.88;;;;;;;;;;5050432;28;20025;-65
2021/03/11 01:22:22;;;;;;;21.55;9.38;;;;;;;;;;5050417;28;20020;-64
2021/03/11 01:24:47;;;;;;;22.75;10.50;;;;;;;;;;5032527;28;20033;-64
2021/03/11 01:27:12;;;;;;;25.25;9.75;;;;;;;;;;5050543;28;20064;-64
2021/03/11 01:29:37;;;;;;;19.13;9.40;;;;;;;;;;5049550;28;20020;-64
2021/03/11 01:32:03;;;;;;;15.35;7.70;;;;;;;;;;5050560;28;20324;-64
2021/03/11 01:34:28;;;;;;;24.38;12.43;;;;;;;;;;5050458;28;20017;-64
2021/03/11 01:36:53;;;;;;;17.90;7.32;;;;;;;;;;5050676;28;20452;-64
2021/03/11 01:39:18;;;;;;;18.83;7.47;;;;;;;;;;5049910;28;20107;-64
2021/03/11 01:41:43;;;;;;;19.63;10.45;;;;;;;;;;5050447;28;20029;-64
2021/03/11 01:44:09;;;;;;;26.83;13.23;;;;;;;;;;5049545;28;20021;-64
2021/03/11 01:46:34;;;;;;;18.13;9.35;;;;;;;;;;5048626;28;20267;-64
2021/03/11 01:48:59;;;;;;;23.13;9.77;;;;;;;;;;5055745;28;20070;-64
2021/03/11 01:51:25;;;;;;;26.77;6.97;;;;;;;;;;5050115;28;20032;-64
2021/03/11 01:53:51;;;;;;;21.00;8.68;;;;;;;;;;5050417;28;20040;-64
2021/03/11 01:56:16;;;;;;;24.42;9.75;;;;;;;;;;5046056;28;20111;-64
2021/03/11 01:58:42;;;;;;;22.45;11.68;;;;;;;;;;5049619;28;20028;-64
2021/03/11 02:01:07;;;;;;;14.52;5.57;;;;;;;;;;5048828;28;20025;-64
2021/03/11 02:03:32;;;;;;;20.58;10.63;;;;;;;;;;5056364;28;20032;-64
2021/03/11 02:05:57;;;;;;;14.52;6.38;;;;;;;;;;5033835;28;20024;-64
2021/03/11 02:08:22;;;;;;;18.15;8.23;;;;;;;;;;5049569;28;20373;-64
2021/03/11 02:10:48;;;;;;;12.75;4.97;;;;;;;;;;5049814;28;20166;-64
2021/03/11 02:13:28;;;;;;;11.00;6.53;;;;;;;;;;5050003;28;20741;-64
2021/03/11 02:15:53;;;;;;;;;;;;;;;;;;5050104;28;20108;-64
2021/03/11 02:18:27;;;;;;;10.93;6.40;;;;;;;;;;5044984;28;19996;-64
2021/03/11 02:20:55;;;;;;;15.52;5.22;;;;;;;;;;5048312;28;20768;-64
2021/03/11 02:23:35;;;;;;;7.90;2.55;;;;;;;;;;5050141;28;20444;-64
2021/03/11 02:26:19;;;;;;;10.20;6.03;;;;;;;;;;5048928;28;20520;-64
2021/03/11 02:29:03;;;;;;;9.70;4.32;;;;;;;;;;5046992;28;20057;-64
2021/03/11 02:31:29;;;;;;;10.60;5.13;;;;;;;;;;5046005;28;20031;-64
2021/03/11 02:33:55;;;;;;;8.88;5.03;;;;;;;;;;5047643;28;20025;-64
2021/03/11 02:36:21;;;;;;;9.77;4.45;;;;;;;;;;5042189;28;20032;-64
2021/03/11 02:38:47;;;;;;;6.10;3.20;;;;;;;;;;5048004;28;20033;-64
2021/03/11 02:41:14;;;;;;;6.47;3.92;;;;;;;;;;5046986;28;20025;-64
2021/03/11 02:43:39;;;;;;;6.13;2.20;;;;;;;;;;5047473;28;20516;-64
2021/03/11 02:46:05;;;;;;;8.15;3.88;;;;;;;;;;5041184;28;20029;-64
2021/03/11 02:48:31;;;;;;;7.50;4.28;;;;;;;;;;5046493;28;20052;-64
2021/03/11 02:50:57;;;;;;;9.60;3.95;;;;;;;;;;5047130;28;20021;-64
2021/03/11 02:53:23;;;;;;;9.25;3.92;;;;;;;;;;5047655;28;20493;-64
2021/03/11 02:55:48;;;;;;;8.85;4.45;;;;;;;;;;5047805;28;20036;-64
2021/03/11 02:58:14;;;;;;;6.72;3.40;;;;;;;;;;5046916;28;20094;-64
2021/03/11 03:00:42;;;;;;;6.22;3.60;;;;;;;;;;5042244;28;20024;-64
2021/03/11 03:03:08;;;;;;;6.35;2.45;;;;;;;;;;5051284;28;20021;-64
2021/03/11 03:05:34;;;;;;;5.15;3.30;;;;;;;;;;5051649;28;20036;-64
2021/03/11 03:07:59;;;;;;;6.28;3.00;;;;;;;;;;5023218;28;20014;-64
2021/03/11 03:10:27;;;;;;;8.90;3.97;;;;;;;;;;5044314;28;20574;-64
2021/03/11 03:12:54;;;;;;;5.22;2.90;;;;;;;;;;5051230;28;20108;-64
2021/03/11 03:15:19;;;;;;;4.07;2.63;;;;;;;;;;5050349;28;20025;-64
2021/03/11 03:17:48;;;;;;;7.50;4.40;;;;;;;;;;5044113;28;20039;-64
2021/03/11 03:20:15;;;;;;;8.82;3.58;;;;;;;;;;5055829;28;20546;-64
2021/03/11 03:22:41;;;;;;;6.22;2.97;;;;;;;;;;5053086;28;20059;-64
2021/03/11 03:25:09;;;;;;;8.20;3.75;;;;;;;;;;5051443;28;20470;-64
2021/03/11 03:27:35;;;;;;;6.60;2.90;;;;;;;;;;5052648;28;20021;-64
2021/03/11 03:30:01;;;;;;;4.20;2.17;;;;;;;;;;5052341;28;20528;-64
2021/03/11 03:32:26;;;;;;;4.05;2.85;;;;;;;;;;5049685;28;20013;-64
2021/03/11 03:34:51;;;;;;;6.97;3.30;;;;;;;;;;5051458;28;20036;-64
2021/03/11 03:37:16;;;;;;;6.47;3.05;;;;;;;;;;5053106;28;20013;-64
2021/03/11 03:39:42;;;;;;;8.18;3.63;;;;;;;;;;5052474;28;20021;-64
2021/03/11 03:42:07;;;;;;;7.22;3.45;;;;;;;;;;5052282;28;20107;-64
2021/03/11 03:44:37;;;;;;;8.52;4.43;;;;;;;;;;5052633;28;20029;-64
2021/03/11 03:47:03;;;;;;;6.47;3.33;;;;;;;;;;5052578;28;20021;-64
2021/03/11 03:49:29;;;;;;;8.52;5.00;;;;;;;;;;5052166;28;20263;-64
2021/03/11 03:51:55;;;;;;;8.82;3.83;;;;;;;;;;5052173;28;20362;-64
2021/03/11 03:54:20;;;;;;;4.38;3.08;;;;;;;;;;5052498;28;20031;-64
2021/03/11 03:56:50;;;;;;;5.70;3.58;;;;;;;;;;5053671;28;20632;-65
2021/03/11 03:59:18;;;;;;;8.18;3.85;;;;;;;;;;5052373;28;20017;-64
2021/03/11 04:01:43;;;;;;;8.63;5.10;;;;;;;;;;5051833;28;20029;-64
2021/03/11 04:04:10;;;;;;;7.55;4.05;;;;;;;;;;5051905;28;20024;-64
2021/03/11 04:06:36;;;;;;;7.25;3.53;;;;;;;;;;5052204;28;20028;-64
2021/03/11 04:09:03;;;;;;;6.40;2.95;;;;;;;;;;5051159;28;20025;-64
2021/03/11 04:11:29;;;;;;;9.18;4.72;;;;;;;;;;5051369;28;20513;-64
2021/03/11 04:13:55;;;;;;;7.28;3.47;;;;;;;;;;5047220;28;20032;-64
2021/03/11 04:16:20;;;;;;;3.80;2.05;;;;;;;;;;5049372;28;20021;-64
2021/03/11 04:18:46;;;;;;;5.88;2.65;;;;;;;;;;5049021;28;20552;-64
2021/03/11 04:21:12;;;;;;;8.05;4.32;;;;;;;;;;5048999;28;20029;-64
2021/03/11 04:23:38;;;;;;;9.32;4.82;;;;;;;;;;5050725;28;20036;-64
2021/03/11 04:26:04;;;;;;;11.35;2.50;;;;;;;;;;5045344;28;20031;-64
2021/03/11 04:28:29;;;;;;;7.75;3.65;;;;;;;;;;5048564;28;20090;-64
2021/03/11 04:30:54;;;;;;;10.40;4.20;;;;;;;;;;5051485;28;20033;-64
2021/03/11 04:33:20;;;;;;;6.53;4.60;;;;;;;;;;5051661;28;20033;-64
2021/03/11 04:35:45;;;;;;;9.57;4.47;;;;;;;;;;5051254;28;20021;-64
2021/03/11 04:38:11;;;;;;;5.60;3.65;;;;;;;;;;5051065;28;20023;-64
2021/03/11 04:40:36;;;;;;;6.72;3.15;;;;;;;;;;5051025;28;20035;-65
2021/03/11 04:43:02;;;;;;;6.75;3.72;;;;;;;;;;5051521;28;20082;-63
2021/03/11 04:45:27;;;;;;;15.02;5.07;;;;;;;;;;5051720;28;20071;-63
2021/03/11 04:47:52;;;;;;;3.53;1.95;;;;;;;;;;5051478;28;20381;-64
2021/03/11 04:50:18;;;;;;;7.00;3.80;;;;;;;;;;5051379;28;20088;-66
2021/03/11 04:52:44;;;;;;;5.90;2.55;;;;;;;;;;5051516;28;20112;-64
2021/03/11 04:55:09;;;;;;;6.30;2.83;;;;;;;;;;5048268;28;20351;-64
2021/03/11 04:57:34;;;;;;;5.53;3.22;;;;;;;;;;5048776;28;20115;-64
2021/03/11 05:00:00;;;;;;;9.48;2.58;;;;;;;;;;5048707;28;20043;-64
2021/03/11 05:02:34;;;;;;;5.88;3.10;;;;;;;;;;5048796;28;20036;-64
2021/03/11 05:05:06;;;;;;;7.00;3.35;;;;;;;;;;5048812;28;20078;-64
2021/03/11 05:07:31;;;;;;;4.65;2.20;;;;;;;;;;5048969;28;20029;-65
2021/03/11 05:09:57;;;;;;;5.97;2.53;;;;;;;;;;5048543;28;20053;-65
2021/03/11 05:12:23;;;;;;;3.47;2.37;;;;;;;;;;5048788;28;20056;-64
2021/03/11 05:14:48;;;;;;;4.38;2.55;;;;;;;;;;5050448;28;20741;-64
2021/03/11 05:17:13;;;;;;;4.63;3.00;;;;;;;;;;5033247;28;20028;-64
2021/03/11 05:19:39;;;;;;;4.28;1.98;;;;;;;;;;5050041;28;20294;-64
2021/03/11 05:22:04;;;;;;;5.38;2.80;;;;;;;;;;5050531;28;20017;-64
2021/03/11 05:24:29;;;;;;;5.82;3.33;;;;;;;;;;5048438;28;20119;-64
2021/03/11 05:26:54;;;;;;;4.55;2.60;;;;;;;;;;5048804;28;20052;-64
2021/03/11 05:29:19;;;;;;;3.90;2.38;;;;;;;;;;5056084;28;20609;-64
2021/03/11 05:31:45;;;;;;;4.95;3.03;;;;;;;;;;5060028;28;20037;-64
2021/03/11 05:34:10;;;;;;;5.70;2.53;;;;;;;;;;5046420;28;20029;-64
2021/03/11 05:36:35;;;;;;;2.75;1.55;;;;;;;;;;5048071;28;20444;-64
2021/03/11 05:39:05;;;;;;;5.10;2.25;;;;;;;;;;5048353;28;20043;-64
2021/03/11 05:41:33;;;;;;;4.18;2.78;;;;;;;;;;5047303;28;20036;-64
2021/03/11 05:43:59;;;;;;;2.70;1.73;;;;;;;;;;5048000;28;20079;-64
2021/03/11 05:46:24;;;;;;;3.13;1.40;;;;;;;;;;5046665;28;20698;-64
2021/03/11 05:48:50;;;;;;;2.60;1.50;;;;;;;;;;5047358;28;20442;-64
2021/03/11 05:51:15;;;;;;;4.43;3.05;;;;;;;;;;5048196;28;20027;-64
2021/03/11 05:53:41;;;;;;;7.50;2.15;;;;;;;;;;5046910;28;20033;-64
2021/03/11 05:56:07;;;;;;;3.42;2.13;;;;;;;;;;5049507;28;20492;-64
2021/03/11 05:58:32;;;;;;;6.32;2.80;;;;;;;;;;5046256;28;20456;-64
2021/03/11 06:00:58;;;;;;;2.45;1.65;;;;;;;;;;5047150;28;20039;-64
2021/03/11 06:03:24;;;;;;;1.73;1.25;;;;;;;;;;5047225;28;20016;-65
2021/03/11 06:05:50;;;;;;;5.03;3.03;;;;;;;;;;5047483;28;20108;-65
2021/03/11 06:08:15;;;;;;;1.80;1.15;;;;;;;;;;5046212;28;20104;-64
2021/03/11 06:10:40;;;;;;;3.85;1.85;;;;;;;;;;5047580;28;20033;-64
2021/03/11 06:13:07;;;;;;;3.17;1.50;;;;;;;;;;5048515;28;20079;-64
2021/03/11 06:15:36;;;;;;;5.72;2.40;;;;;;;;;;5047665;28;20051;-64
2021/03/11 06:18:05;;;;;;;2.65;1.52;;;;;;;;;;5046289;28;20037;-64
2021/03/11 06:20:31;;;;;;;17.63;2.33;;;;;;;;;;5047128;28;20477;-64
2021/03/11 06:22:56;;;;;;;2.92;1.23;;;;;;;;;;5047672;28;20057;-64
2021/03/11 06:25:21;;;;;;;5.33;2.83;;;;;;;;;;5047620;28;20060;-64
2021/03/11 06:27:47;;;;;;;5.38;2.10;;;;;;;;;;5046000;28;20961;-65
2021/03/11 06:30:32;;;;;;;2.45;1.50;;;;;;;;;;5048397;28;20473;-64
2021/03/11 06:32:58;;;;;;;3.67;1.42;;;;;;;;;;5048765;28;20065;-64
2021/03/11 06:35:24;;;;;;;2.90;1.48;;;;;;;;;;5049894;28;20405;-64
2021/03/11 06:37:49;;;;;;;4.15;2.15;;;;;;;;;;5052070;28;20883;-64
2021/03/11 06:40:18;;;;;;;4.38;1.95;;;;;;;;;;5052663;28;20028;-65
2021/03/11 06:42:44;;;;;;;4.10;2.20;;;;;;;;;;5052689;28;20020;-65
2021/03/11 06:45:19;;;;;;;4.20;1.70;;;;;;;;;;5052854;28;20459;-64
2021/03/11 06:47:45;;;;;;;3.35;1.48;;;;;;;;;;5052468;28;20017;-66
2021/03/11 06:50:10;;;;;;;5.95;2.67;;;;;;;;;;5052898;28;20477;-64
2021/03/11 06:52:35;;;;;;;7.20;2.28;;;;;;;;;;5052981;28;20017;-64
2021/03/11 06:55:03;;;;;;;7.75;1.73;;;;;;;;;;5054683;28;20069;-65
2021/03/11 06:57:35;;;;;;;3.95;1.40;;;;;;;;;;5052673;28;20017;-64
2021/03/11 07:00:03;;;;;;;1.83;1.10;;;;;;;;;;5052493;28;20495;-64
2021/03/11 07:02:29;;;;;;;4.22;2.05;;;;;;;;;;5053522;28;20013;-65
2021/03/11 07:04:55;;;;;;;4.75;2.03;;;;;;;;;;5052623;28;20024;-65
2021/03/11 07:07:21;;;;;;;4.18;2.47;;;;;;;;;;5053264;28;20436;-65
2021/03/11 07:09:49;;;;;;;3.90;2.50;;;;;;;;;;5052632;28;20009;-63
2021/03/11 07:12:15;;;;;;;4.55;2.22;;;;;;;;;;5052556;28;20019;-66
2021/03/11 07:14:40;;;;;;;3.15;1.73;;;;;;;;;;5052422;28;20274;-64
2021/03/11 07:17:25;;;;;;;8.70;2.50;;;;;;;;;;5051574;28;20108;-64
2021/03/11 07:20:10;;;;;;;3.30;1.55;;;;;;;;;;5048114;28;20079;-64
2021/03/11 07:22:36;;;;;;;2.97;2.22;;;;;;;;;;5037459;28;20044;-64
2021/03/11 07:25:02;;;;;;;2.83;0.93;;;;;;;;;;5052800;28;20036;-64
2021/03/11 07:27:40;;;;;;;3.50;1.58;;;;;;;;;;5051549;28;20067;-64
2021/03/11 07:30:06;;;;;;;1.42;0.90;;;;;;;;;;5050195;28;20031;-64
2021/03/11 07:32:32;;;;;;;4.35;1.27;;;;;;;;;;5051591;28;20017;-64
2021/03/11 07:34:59;;;;;;;2.53;1.38;;;;;;;;;;5051791;28;20495;-65
2021/03/11 07:37:26;;;;;;;4.57;1.77;;;;;;;;;;5034086;28;20056;-63
2021/03/11 07:39:53;;;;;;;2.00;1.23;;;;;;;;;;5052150;28;20037;-65
2021/03/11 07:42:19;;;;;;;3.08;1.95;;;;;;;;;;5052405;28;20032;-65
2021/03/11 07:44:44;;;;;;;1.48;0.88;;;;;;;;;;5052840;28;20059;-65
2021/03/11 07:47:10;;;;;;;3.53;1.17;;;;;;;;;;5052571;28;20048;-63
2021/03/11 07:49:35;;;;;;;2.30;0.90;;;;;;;;;;5057672;28;20024;-63
2021/03/11 07:52:03;;;;;;;2.08;1.42;;;;;;;;;;5073106;28;20086;-65
2021/03/11 07:54:31;;;;;;;3.25;1.73;;;;;;;;;;5058047;28;20023;-64
2021/03/11 07:56:56;;;;;;;4.30;1.67;;;;;;;;;;5053099;28;20025;-64
2021/03/11 07:59:22;;;;;;;3.05;1.90;;;;;;;;;;5052227;28;20021;-65
2021/03/11 08:01:50;;;;;;;3.33;1.95;;;;;;;;;;5052129;28;20029;-65
2021/03/11 08:04:19;;;;;;;5.13;2.70;;;;;;;;;;5050889;28;20738;-64
2021/03/11 08:06:45;;;;;;;2.63;1.50;;;;;;;;;;5051821;28;20025;-65
2021/03/11 08:09:10;;;;;;;5.07;1.23;;;;;;;;;;5052238;28;20401;-65
2021/03/11 08:11:36;;;;;;;3.13;1.45;;;;;;;;;;5052557;28;20052;-64
2021/03/11 08:14:17;;;;;;;5.50;2.78;;;;;;;;;;5051930;28;20496;-63
2021/03/11 08:16:42;;;;;;;;;;;;;;;;;;5050426;28;20094;-64
2021/03/11 08:19:07;;;;;;;3.58;2.15;;;;;;;;;;5045978;28;19952;-64
2021/03/11 08:21:32;;;;;;;6.88;2.10;;;;;;;;;;5047501;28;20021;-63
2021/03/11 08:23:58;;;;;;;3.90;2.00;;;;;;;;;;5051666;28;20029;-64
2021/03/11 08:26:38;;;;;;;4.45;2.05;;;;;;;;;;5051998;28;20974;-63
2021/03/11 08:29:18;;;;;;;4.40;1.98;;;;;;;;;;5051247;28;20051;-64
2021/03/11 08:31:44;;;;;;;5.18;2.88;;;;;;;;;;5051171;28;20555;-64
2021/03/11 08:34:29;;;;;;;8.98;2.38;;;;;;;;;;5051616;28;20020;-64
2021/03/11 08:36:54;;;;;;;10.98;2.60;;;;;;;;;;5051516;28;20028;-64
2021/03/11 08:39:33;;;;;;;5.32;2.80;;;;;;;;;;5050929;28;20020;-65
2021/03/11 08:41:58;;;;;;;5.95;3.63;;;;;;;;;;5051563;28;20112;-64
2021/03/11 08:44:41;;;;;;;4.55;2.20;;;;;;;;;;5058699;28;20517;-64
2021/03/11 08:47:09;;;;;;;6.60;2.05;;;;;;;;;;5054856;28;20020;-64
2021/03/11 08:49:35;;;;;;;9.98;3.03;;;;;;;;;;5049758;28;20024;-64
2021/03/11 08:52:00;;;;;;;4.30;2.40;;;;;;;;;;5050875;28;20017;-64
2021/03/11 08:54:26;;;;;;;2.80;1.13;;;;;;;;;;5051333;28;20020;-64
2021/03/11 08:56:51;;;;;;;3.67;2.05;;;;;;;;;;5050628;28;20083;-64
2021/03/11 08:59:17;;;;;;;5.03;2.03;;;;;;;;;;5050685;28;20029;-64
2021/03/11 09:01:51;;;;;;;5.72;1.75;;;;;;;;;;5050960;28;20056;-65
2021/03/11 09:04:23;;;;;;;2.97;1.52;;;;;;;;;;5050956;28;20092;-65
2021/03/11 09:06:51;;;;;;;2.42;1.67;;;;;;;;;;5051435;28;20017;-65
2021/03/11 09:09:17;;;;;;;6.10;2.95;;;;;;;;;;5050598;28;20105;-65
2021/03/11 09:11:55;;;;;;;5.75;2.55;;;;;;;;;;5050832;28;20121;-65
2021/03/11 09:14:23;;;;;;;6.05;2.38;;;;;;;;;;5050052;28;20096;-65
2021/03/11 09:16:49;;;;;;;5.22;2.17;;;;;;;;;;5050964;28;20024;-65
2021/03/11 09:19:14;;;;;;;4.15;3.17;;;;;;;;;;5049419;28;20047;-65
2021/03/11 09:21:40;;;;;;;6.72;3.25;;;;;;;;;;5050676;28;20104;-65
2021/03/11 09:24:14;;;;;;;6.18;2.80;;;;;;;;;;5050202;28;20056;-65
2021/03/11 09:26:39;;;;;;;8.23;3.85;;;;;;;;;;5050646;28;20060;-65
2021/03/11 09:29:05;;;;;;;8.18;3.45;;;;;;;;;;5050250;28;20053;-65
2021/03/11 09:31:30;;;;;;;16.40;6.10;;;;;;;;;;5049124;28;20591;-65
2021/03/11 09:33:56;;;;;;;13.07;4.18;;;;;;;;;;5050435;28;20024;-65
2021/03/11 09:36:22;;;;;;;12.18;3.70;;;;;;;;;;5048326;28;20029;-66
2021/03/11 09:38:49;;;;;;;6.82;2.13;;;;;;;;;;5049876;28;20021;-65
2021/03/11 09:41:14;;;;;;;11.50;2.97;;;;;;;;;;5050538;28;20056;-65
2021/03/11 09:43:39;;;;;;;12.88;2.13;;;;;;;;;;5050336;28;20456;-65
2021/03/11 09:46:11;;;;;;;11.93;2.45;;;;;;;;;;5050768;28;20013;-66
2021/03/11 09:48:44;;;;;;;9.65;1.67;;;;;;;;;;5050041;28;20017;-65
2021/03/11 09:51:29;;;;;;;12.27;2.88;;;;;;;;;;5031895;28;20028;-65
2021/03/11 09:54:03;;;;;;;19.42;3.08;;;;;;;;;;5050301;28;20029;-65
2021/03/11 09:56:28;;;;;;;12.00;2.28;;;;;;;;;;5049826;28;20512;-65
2021/03/11 09:59:00;;;;;;;20.65;2.08;;;;;;;;;;5049619;28;20032;-65
2021/03/11 10:01:36;;;;;;;18.45;2.90;;;;;;;;;;5049100;28;20275;-65
2021/03/11 10:04:10;;;;;;;17.70;3.83;;;;;;;;;;5050071;28;20013;-65
2021/03/11 10:06:36;;;;;;;16.27;1.58;;;;;;;;;;5040932;28;20013;-65
2021/03/11 10:09:01;;;;;;;8.57;1.98;;;;;;;;;;5049516;28;20021;-65
2021/03/11 10:11:33;;;;;;;16.98;3.35;;;;;;;;;;5050294;28;20025;-66
2021/03/11 10:14:02;;;;;;;11.75;2.83;;;;;;;;;;5050334;28;20066;-65
2021/03/11 10:16:36;;;;;;;14.85;2.55;;;;;;;;;;5049564;28;20044;-65
2021/03/11 10:19:15;;;;;;;8.80;2.42;;;;;;;;;;5050113;28;20025;-65
2021/03/11 10:21:46;;;;;;;11.85;2.03;;;;;;;;;;5049275;28;20028;-65
2021/03/11 10:24:12;;;;;;;10.05;2.40;;;;;;;;;;5050621;28;20036;-65
2021/03/11 10:26:38;;;;;;;16.45;2.72;;;;;;;;;;5049993;28;20024;-64
2021/03/11 10:29:07;;;;;;;9.70;2.55;;;;;;;;;;5049118;28;20025;-65
2021/03/11 10:31:33;;;;;;;14.77;4.38;;;;;;;;;;5049486;28;20035;-65
2021/03/11 10:34:05;;;;;;;15.77;1.98;;;;;;;;;;5049073;28;20040;-65
2021/03/11 10:36:31;;;;;;;13.80;2.45;;;;;;;;;;5053297;28;20481;-66
2021/03/11 10:39:14;;;;;;;14.15;2.53;;;;;;;;;;5049918;28;20025;-65
2021/03/11 10:41:56;;;;;;;8.93;1.17;;;;;;;;;;5050046;28;20032;-65
2021/03/11 10:44:21;;;;;;;9.50;2.58;;;;;;;;;;5049644;28;20060;-65
2021/03/11 10:46:47;;;;;;;8.25;2.22;;;;;;;;;;5050251;28;20489;-64
2021/03/11 10:49:14;;;;;;;7.45;2.55;;;;;;;;;;5049270;28;20017;-65
2021/03/11 10:51:40;;;;;;;6.22;1.63;;;;;;;;;;5048265;28;20049;-65
2021/03/11 10:54:05;;;;;;;10.80;2.10;;;;;;;;;;5049023;28;20071;-65
2021/03/11 10:56:30;;;;;;;11.13;1.70;;;;;;;;;;5048734;28;20028;-64
2021/03/11 10:59:14;;;;;;;13.15;2.53;;;;;;;;;;5048617;28;20024;-64
2021/03/11 11:01:40;;;;;;;4.45;1.38;;;;;;;;;;5046186;28;20032;-64
2021/03/11 11:04:05;;;;;;;7.03;2.25;;;;;;;;;;5049020;28;20029;-64
2021/03/11 11:06:31;;;;;;;17.15;2.17;;;;;;;;;;5049417;28;20025;-64
2021/03/11 11:08:56;;;;;;;10.98;2.03;;;;;;;;;;5048302;28;20017;-64
2021/03/11 11:11:22;;;;;;;8.30;2.00;;;;;;;;;;5048736;28;20024;-64
2021/03/11 11:13:48;;;;;;;15.77;3.60;;;;;;;;;;5048727;28;20300;-64
2021/03/11 11:16:13;;;;;;;17.27;2.67;;;;;;;;;;5053553;28;20028;-64
2021/03/11 11:18:39;;;;;;;19.73;1.95;;;;;;;;;;5048908;28;20021;-64
2021/03/11 11:21:05;;;;;;;15.75;2.90;;;;;;;;;;5049899;28;20025;-64
2021/03/11 11:23:31;;;;;;;20.42;2.65;;;;;;;;;;5051166;28;20029;-65
2021/03/11 11:25:56;;;;;;;15.10;1.98;;;;;;;;;;5050993;28;20021;-64
2021/03/11 11:28:21;;;;;;;7.28;2.63;;;;;;;;;;5052183;28;20497;-65
2021/03/11 11:30:47;;;;;;;15.05;2.15;;;;;;;;;;5043742;28;20032;-64
2021/03/11 11:33:12;;;;;;;7.25;1.98;;;;;;;;;;5052833;28;20024;-65
2021/03/11 11:35:37;;;;;;;9.63;2.13;;;;;;;;;;5052449;28;20048;-64
2021/03/11 11:38:03;;;;;;;14.23;2.40;;;;;;;;;;5049181;28;20100;-65
2021/03/11 11:40:29;;;;;;;12.48;2.22;;;;;;;;;;5052746;28;20264;-65
2021/03/11 11:42:54;;;;;;;15.60;2.58;;;;;;;;;;5052648;28;20028;-65
2021/03/11 11:45:19;;;;;;;15.10;3.00;;;;;;;;;;5056227;28;20012;-65
2021/03/11 11:47:44;;;;;;;7.65;1.80;;;;;;;;;;5052717;28;20028;-65
2021/03/11 11:50:10;;;;;;;14.90;2.58;;;;;;;;;;5034604;28;20033;-64
2021/03/11 11:52:36;;;;;;;13.00;2.58;;;;;;;;;;5052865;28;20101;-63
2021/03/11 11:55:01;;;;;;;17.60;1.65;;;;;;;;;;5052361;28;20377;-64
2021/03/11 11:57:26;;;;;;;25.40;3.35;;;;;;;;;;5052569;28;20474;-65
2021/03/11 11:59:52;;;;;;;12.35;3.22;;;;;;;;;;5057164;28;20028;-65
2021/03/11 12:02:17;;;;;;;16.67;2.45;;;;;;;;;;5052229;28;20107;-65
2021/03/11 12:04:42;;;;;;;10.43;2.45;;;;;;;;;;5052290;28;20021;-64
2021/03/11 12:07:08;;;;;;;17.50;3.55;;;;;;;;;;5052413;28;20025;-65
2021/03/11 12:09:34;;;;;;;32.97;4.43;;;;;;;;;;5051327;28;20108;-64
2021/03/11 12:11:59;;;;;;;17.10;3.15;;;;;;;;;;5040780;28;20036;-64
2021/03/11 12:14:24;;;;;;;33.30;3.67;;;;;;;;;;5046095;28;20021;-64
2021/03/11 12:16:50;;;;;;;14.82;3.67;;;;;;;;;;5051783;28;20025;-64
2021/03/11 12:19:15;;;;;;;15.00;3.38;;;;;;;;;;5050359;28;20386;-64
2021/03/11 12:21:40;;;;;;;10.17;2.53;;;;;;;;;;5051824;28;20036;-64
2021/03/11 12:24:05;;;;;;;29.58;4.50;;;;;;;;;;5051232;28;20358;-65
2021/03/11 12:26:30;;;;;;;18.30;3.38;;;;;;;;;;5052503;28;20078;-64
2021/03/11 12:28:57;;;;;;;18.83;3.27;;;;;;;;;;5051940;28;20020;-63
2021/03/11 12:31:22;;;;;;;17.67;3.60;;;;;;;;;;5051914;28;20351;-63
2021/03/11 12:33:49;;;;;;;21.30;3.37;;;;;;;;;;5051129;28;20584;-65
2021/03/11 12:36:14;;;;;;;16.55;2.08;;;;;;;;;;5051277;28;20316;-65
2021/03/11 12:38:40;;;;;;;24.52;4.53;;;;;;;;;;5050842;28;20159;-65
2021/03/11 12:41:05;;;;;;;15.93;2.97;;;;;;;;;;5051271;28;20047;-65
2021/03/11 12:43:31;;;;;;;18.67;3.88;;;;;;;;;;5048002;28;20074;-65
2021/03/11 12:45:56;;;;;;;15.60;2.67;;;;;;;;;;5050616;28;20024;-65
2021/03/11 12:48:22;;;;;;;14.07;2.53;;;;;;;;;;5050833;28;20251;-65
2021/03/11 12:50:48;;;;;;;6.38;1.50;;;;;;;;;;5050796;28;20466;-65
2021/03/11 12:53:14;;;;;;;7.93;2.50;;;;;;;;;;5050736;28;20020;-65
2021/03/11 12:55:39;;;;;;;19.25;2.53;;;;;;;;;;5049256;28;20511;-65
2021/03/11 12:58:04;;;;;;;11.27;1.77;;;;;;;;;;5042670;28;20047;-65
2021/03/11 13:00:30;;;;;;;12.48;2.13;;;;;;;;;;5051811;28;20321;-65
2021/03/11 13:02:55;;;;;;;14.73;2.22;;;;;;;;;;5051468;28;20075;-64
2021/03/11 13:05:20;;;;;;;13.40;2.40;;;;;;;;;;5051793;28;20032;-65
2021/03/11 13:07:45;;;;;;;16.90;2.67;;;;;;;;;;5033720;28;20032;-65
2021/03/11 13:10:11;;;;;;;9.80;2.17;;;;;;;;;;5050116;28;20350;-65
2021/03/11 13:12:36;;;;;;;14.35;2.35;;;;;;;;;;5050537;28;20637;-65
2021/03/11 13:15:01;;;;;;;12.68;2.55;;;;;;;;;;5049306;28;20471;-65
2021/03/11 13:17:26;;;;;;;13.30;2.17;;;;;;;;;;5050003;28;20131;-65
2021/03/11 13:19:52;;;;;;;15.27;3.63;;;;;;;;;;5050230;28;20033;-65
2021/03/11 13:22:17;;;;;;;15.60;2.60;;;;;;;;;;5050198;28;20279;-65
2021/03/11 13:24:42;;;;;;;17.42;2.90;;;;;;;;;;5051227;28;20031;-65
2021/03/11 13:27:08;;;;;;;17.17;2.67;;;;;;;;;;5049334;28;20021;-65
2021/03/11 13:29:33;;;;;;;18.50;2.83;;;;;;;;;;5034663;28;20021;-65
2021/03/11 13:31:59;;;;;;;18.67;3.92;;;;;;;;;;5050462;28;20390;-65
2021/03/11 13:34:24;;;;;;;13.95;3.42;;;;;;;;;;5049818;28;20064;-65
2021/03/11 13:36:49;;;;;;;13.30;2.23;;;;;;;;;;5048606;28;20100;-64
2021/03/11 13:39:14;;;;;;;12.10;1.95;;;;;;;;;;5049555;28;20378;-64
2021/03/11 13:41:40;;;;;;;23.10;3.08;;;;;;;;;;5049860;28;20446;-65
2021/03/11 13:44:05;;;;;;;11.43;1.83;;;;;;;;;;5047606;28;20444;-64
2021/03/11 13:46:31;;;;;;;18.35;3.05;;;;;;;;;;5049372;28;20115;-64
2021/03/11 13:48:56;;;;;;;16.38;3.03;;;;;;;;;;5047790;28;20470;-64
2021/03/11 13:51:22;;;;;;;8.30;1.38;;;;;;;;;;5049907;28;20029;-64
2021/03/11 13:53:47;;;;;;;6.65;1.75;;;;;;;;;;5050097;28;20060;-64
2021/03/11 13:56:13;;;;;;;11.05;1.80;;;;;;;;;;5048480;28;20119;-64
2021/03/11 13:58:39;;;;;;;16.60;2.15;;;;;;;;;;5049501;28;20526;-64
2021/03/11 14:01:04;;;;;;;6.20;1.25;;;;;;;;;;5048578;28;20028;-64
2021/03/11 14:03:29;;;;;;;11.80;2.90;;;;;;;;;;5049899;28;20025;-64
2021/03/11 14:05:54;;;;;;;16.73;2.67;;;;;;;;;;5049628;28;20142;-64
2021/03/11 14:08:20;;;;;;;29.33;1.47;;;;;;;;;;5049487;28;20016;-65
2021/03/11 14:10:45;;;;;;;11.23;2.55;;;;;;;;;;5049247;28;20268;-65
2021/03/11 14:13:10;;;;;;;18.35;2.45;;;;;;;;;;5049849;28;20162;-65
2021/03/11 14:15:35;;;;;;;8.75;2.42;;;;;;;;;;5049734;28;20334;-65
2021/03/11 14:18:00;;;;;;;10.40;1.95;;;;;;;;;;5049004;28;20028;-64
2021/03/11 14:20:26;;;;;;;15.05;1.88;;;;;;;;;;5049831;28;20052;-65
2021/03/11 14:22:51;;;;;;;12.43;1.67;;;;;;;;;;5048776;28;20021;-65
2021/03/11 14:25:16;;;;;;;19.20;3.22;;;;;;;;;;5042886;28;20017;-65
2021/03/11 14:27:42;;;;;;;17.17;3.05;;;;;;;;;;5049866;28;20017;-65
2021/03/11 14:30:07;;;;;;;25.02;2.65;;;;;;;;;;5049664;28;20021;-65
2021/03/11 14:32:33;;;;;;;15.00;2.10;;;;;;;;;;5049591;28;20618;-65
2021/03/11 14:34:59;;;;;;;16.65;3.45;;;;;;;;;;5049260;28;20055;-63